Time;durP1;ratioP1;P1;durP2;ratioP2;P2;SDS_P1;SDS_P2;PMS_P1;PMS_P2;Temp;Humidity;BMP_temperature;BMP_pressure;BME280_temperature;BME280_humidity;BME280_pressure;Samples;Min_cycle;Max_cycle;Signal;HPM_P1;HPM_P2
2021/04/28 00:00:07;;;;;;;5.30;2.60;;;9.10;61.60;;;;;;5101450;28;20023;-84
2021/04/28 00:02:36;;;;;;;6.68;2.50;;;9.10;61.80;;;;;;5112267;28;20024;-87
2021/04/28 00:05:05;;;;;;;3.25;2.13;;;9.10;62.60;;;;;;5099219;28;20041;-86
2021/04/28 00:07:31;;;;;;;3.67;2.28;;;9.00;61.80;;;;;;5106167;28;20047;-86
2021/04/28 00:09:56;;;;;;;3.88;2.33;;;9.00;62.10;;;;;;5095398;28;20069;-86
2021/04/28 00:12:22;;;;;;;3.72;2.33;;;8.90;62.10;;;;;;5111796;28;20044;-86
2021/04/28 00:14:48;;;;;;;3.00;1.98;;;8.90;62.80;;;;;;5094566;28;20524;-86
2021/04/28 00:17:13;;;;;;;6.05;2.47;;;8.90;62.30;;;;;;5101499;28;20389;-87
2021/04/28 00:19:39;;;;;;;3.42;2.08;;;8.80;62.20;;;;;;5114368;28;20031;-86
2021/04/28 00:22:05;;;;;;;4.05;2.42;;;8.80;62.30;;;;;;5101900;28;20067;-85
2021/04/28 00:24:30;;;;;;;4.60;2.50;;;8.80;62.30;;;;;;5093364;28;20024;-86
2021/04/28 00:26:56;;;;;;;3.97;2.40;;;8.80;62.30;;;;;;5108934;28;20085;-85
2021/04/28 00:29:21;;;;;;;3.45;2.45;;;8.70;63.00;;;;;;5092693;28;20027;-85
2021/04/28 00:31:47;;;;;;;5.55;2.30;;;8.70;62.50;;;;;;5103749;28;20072;-84
2021/04/28 00:34:13;;;;;;;4.20;2.28;;;8.70;62.80;;;;;;5098248;28;20028;-85
2021/04/28 00:36:38;;;;;;;4.72;2.10;;;8.60;63.50;;;;;;5094218;28;20032;-85
2021/04/28 00:39:05;;;;;;;3.55;2.20;;;8.60;63.00;;;;;;5115241;28;20111;-86
2021/04/28 00:41:31;;;;;;;4.88;2.50;;;8.50;63.20;;;;;;5115649;28;20042;-86
2021/04/28 00:43:57;;;;;;;3.80;2.30;;;8.50;63.30;;;;;;5117259;28;20469;-84
2021/04/28 00:46:23;;;;;;;4.20;2.60;;;8.50;63.40;;;;;;5099944;28;20025;-86
2021/04/28 00:48:48;;;;;;;4.60;2.40;;;8.50;63.50;;;;;;5112965;28;20012;-86
2021/04/28 00:51:14;;;;;;;5.72;3.13;;;8.50;63.50;;;;;;5112913;28;20047;-86
2021/04/28 00:53:41;;;;;;;4.72;3.10;;;8.40;63.50;;;;;;5109977;28;20482;-86
2021/04/28 00:56:08;;;;;;;3.97;2.47;;;8.40;63.70;;;;;;5107770;28;20063;-86
2021/04/28 00:58:33;;;;;;;3.90;2.45;;;8.40;64.00;;;;;;5108954;28;20016;-84
2021/04/28 01:00:59;;;;;;;6.80;2.83;;;8.30;64.30;;;;;;5102942;28;20836;-84
2021/04/28 01:03:28;;;;;;;4.50;2.60;;;8.30;64.40;;;;;;5096106;28;20036;-85
2021/04/28 01:05:56;;;;;;;6.07;3.13;;;8.20;64.30;;;;;;5111517;28;20534;-85
2021/04/28 01:08:22;;;;;;;3.25;2.30;;;8.20;64.40;;;;;;5109663;28;20409;-84
2021/04/28 01:10:49;;;;;;;4.63;2.28;;;8.20;64.50;;;;;;5107317;28;20026;-85
2021/04/28 01:13:15;;;;;;;4.40;2.47;;;8.20;64.50;;;;;;5103782;28;20031;-84
2021/04/28 01:15:42;;;;;;;3.33;2.03;;;8.10;64.80;;;;;;5106739;28;20027;-86
2021/04/28 01:18:08;;;;;;;4.82;2.70;;;8.10;64.80;;;;;;5105632;28;20538;-86
2021/04/28 01:20:37;;;;;;;4.00;2.60;;;8.10;64.90;;;;;;5107725;28;20016;-85
2021/04/28 01:23:04;;;;;;;4.10;2.47;;;8.00;64.90;;;;;;5103811;28;20077;-85
2021/04/28 01:25:30;;;;;;;4.13;2.58;;;8.00;65.10;;;;;;5107315;28;20032;-85
2021/04/28 01:28:02;;;;;;;5.70;2.90;;;8.00;65.50;;;;;;5107852;28;20019;-86
2021/04/28 01:30:38;;;;;;;4.10;2.45;;;7.90;65.50;;;;;;5126456;27;20015;-85
2021/04/28 01:33:05;;;;;;;5.25;2.80;;;7.90;65.50;;;;;;5100276;28;20058;-86
2021/04/28 01:35:32;;;;;;;5.65;3.13;;;7.90;65.70;;;;;;5100895;28;20040;-86
2021/04/28 01:38:00;;;;;;;4.95;3.10;;;7.80;65.70;;;;;;5099908;28;20068;-87
2021/04/28 01:40:26;;;;;;;5.30;2.50;;;7.80;65.80;;;;;;5103457;28;20122;-86
2021/04/28 01:42:52;;;;;;;4.43;2.90;;;7.70;66.30;;;;;;5103544;28;20018;-84
2021/04/28 01:45:19;;;;;;;3.92;2.47;;;7.70;66.20;;;;;;5100442;28;20119;-86
2021/04/28 01:47:45;;;;;;;6.20;3.00;;;7.70;66.30;;;;;;5095803;28;20454;-85
2021/04/28 01:50:13;;;;;;;4.78;2.92;;;7.70;66.40;;;;;;5094475;28;20207;-85
2021/04/28 01:52:42;;;;;;;4.78;2.65;;;7.70;66.50;;;;;;5093871;28;20031;-84
2021/04/28 01:55:08;;;;;;;4.60;2.80;;;7.70;66.50;;;;;;5095433;28;20024;-85
2021/04/28 01:57:35;;;;;;;4.78;3.03;;;7.60;66.60;;;;;;5095026;28;20012;-84
2021/04/28 02:00:01;;;;;;;4.18;2.60;;;7.60;66.80;;;;;;5092984;28;20024;-85
2021/04/28 02:02:26;;;;;;;4.40;2.75;;;7.60;67.10;;;;;;5094264;28;20028;-86
2021/04/28 02:04:52;;;;;;;4.40;2.60;;;7.50;66.90;;;;;;5093609;28;20026;-85
2021/04/28 02:07:19;;;;;;;4.63;2.63;;;7.50;67.10;;;;;;5094026;28;20042;-86
2021/04/28 02:09:44;;;;;;;3.45;2.47;;;7.40;67.30;;;;;;5094014;28;20016;-85
2021/04/28 02:12:12;;;;;;;4.07;2.40;;;7.40;67.50;;;;;;5095262;28;20028;-84
2021/04/28 02:14:40;;;;;;;4.38;2.70;;;7.40;67.70;;;;;;5095911;28;20032;-86
2021/04/28 02:17:06;;;;;;;5.72;3.08;;;7.30;67.70;;;;;;5094392;28;20016;-86
2021/04/28 02:19:33;;;;;;;4.05;2.47;;;7.30;67.70;;;;;;5094306;28;20061;-86
2021/04/28 02:22:01;;;;;;;4.82;2.50;;;7.30;67.90;;;;;;5094483;28;20012;-86
2021/04/28 02:24:26;;;;;;;5.65;3.03;;;7.30;68.10;;;;;;5093170;28;20020;-85
2021/04/28 02:26:57;;;;;;;5.22;3.05;;;7.20;68.20;;;;;;5094169;28;20587;-87
2021/04/28 02:29:24;;;;;;;5.03;2.55;;;7.20;68.30;;;;;;5093332;28;20108;-86
2021/04/28 02:31:49;;;;;;;4.25;2.58;;;7.10;68.40;;;;;;5094073;28;20108;-86
2021/04/28 02:34:15;;;;;;;5.78;3.22;;;7.10;68.50;;;;;;5093637;28;20024;-86
2021/04/28 02:36:44;;;;;;;6.20;3.00;;;7.10;68.60;;;;;;5093994;28;20036;-85
2021/04/28 02:39:35;;;;;;;6.63;3.28;;;7.10;68.70;;;;;;5093643;28;20012;-85
2021/04/28 02:42:02;;;;;;;4.53;3.05;;;7.10;68.80;;;;;;5081733;28;20033;-85
2021/04/28 02:44:30;;;;;;;5.30;3.17;;;7.00;68.80;;;;;;5093668;28;20020;-86
2021/04/28 02:46:57;;;;;;;8.00;3.72;;;7.00;69.00;;;;;;5093431;28;20029;-85
2021/04/28 02:49:23;;;;;;;6.40;3.47;;;7.00;69.20;;;;;;5094457;28;20035;-84
2021/04/28 02:51:51;;;;;;;5.43;3.47;;;6.90;69.30;;;;;;5093163;28;20024;-85
2021/04/28 02:54:21;;;;;;;6.75;3.60;;;6.90;69.30;;;;;;5094613;28;20514;-85
2021/04/28 02:56:52;;;;;;;4.13;2.92;;;6.90;69.50;;;;;;5093076;28;20405;-83
2021/04/28 02:59:22;;;;;;;5.90;3.22;;;6.80;69.70;;;;;;5093356;28;20118;-86
2021/04/28 03:01:49;;;;;;;6.30;3.00;;;6.80;69.80;;;;;;5094542;28;20095;-86
2021/04/28 03:04:16;;;;;;;7.28;3.45;;;6.70;69.80;;;;;;5092967;28;20107;-85
2021/04/28 03:06:42;;;;;;;5.53;3.35;;;6.70;69.90;;;;;;5093090;28;20040;-85
2021/04/28 03:09:09;;;;;;;4.20;3.10;;;6.70;70.00;;;;;;5093101;28;20055;-86
2021/04/28 03:11:36;;;;;;;4.38;3.03;;;6.70;70.20;;;;;;5093057;28;20024;-85
2021/04/28 03:14:04;;;;;;;7.07;3.55;;;6.70;70.20;;;;;;5092614;28;20028;-86
2021/04/28 03:16:31;;;;;;;4.53;3.10;;;6.70;70.30;;;;;;5093258;28;20466;-86
2021/04/28 03:19:01;;;;;;;5.05;3.25;;;6.60;70.40;;;;;;5092791;28;20020;-85
2021/04/28 03:21:31;;;;;;;4.68;2.80;;;6.60;70.40;;;;;;5092628;28;20135;-85
2021/04/28 03:23:57;;;;;;;5.50;3.00;;;6.60;70.50;;;;;;5092963;28;20043;-85
2021/04/28 03:26:23;;;;;;;4.20;2.78;;;6.60;70.60;;;;;;5092672;28;20032;-85
2021/04/28 03:28:49;;;;;;;5.38;3.13;;;6.50;70.60;;;;;;5093940;28;20359;-87
2021/04/28 03:31:15;;;;;;;6.80;3.15;;;6.50;70.70;;;;;;5093073;28;20058;-86
2021/04/28 03:33:40;;;;;;;3.83;2.80;;;6.50;70.90;;;;;;5092908;28;20401;-86
2021/04/28 03:36:06;;;;;;;3.85;3.05;;;6.40;71.00;;;;;;5092818;28;20229;-86
2021/04/28 03:38:32;;;;;;;4.57;2.83;;;6.50;71.20;;;;;;5092616;28;20531;-85
2021/04/28 03:40:58;;;;;;;4.40;2.88;;;6.40;71.20;;;;;;5094147;28;20031;-86
2021/04/28 03:43:24;;;;;;;5.85;3.17;;;6.40;71.20;;;;;;5092730;28;20016;-85
2021/04/28 03:45:51;;;;;;;4.30;3.00;;;6.40;71.20;;;;;;5092519;28;20409;-86
2021/04/28 03:48:16;;;;;;;5.18;3.30;;;6.40;71.40;;;;;;5093745;28;20466;-86
2021/04/28 03:50:42;;;;;;;5.07;3.30;;;6.40;71.40;;;;;;5092519;28;20028;-86
2021/04/28 03:53:09;;;;;;;5.88;3.05;;;6.30;71.50;;;;;;5092246;28;20107;-85
2021/04/28 03:55:34;;;;;;;5.45;3.25;;;6.30;71.80;;;;;;5092791;28;20020;-84
2021/04/28 03:58:00;;;;;;;6.03;3.20;;;6.30;71.70;;;;;;5093026;28;20024;-86
2021/04/28 04:00:25;;;;;;;8.50;2.95;;;6.30;71.70;;;;;;5092709;28;20535;-86
2021/04/28 04:02:51;;;;;;;5.55;3.60;;;6.30;71.80;;;;;;5093480;28;20038;-86
2021/04/28 04:05:17;;;;;;;5.45;3.20;;;6.30;71.90;;;;;;5092623;28;20039;-85
2021/04/28 04:07:42;;;;;;;5.32;3.30;;;6.20;72.00;;;;;;5092358;28;20390;-85
2021/04/28 04:10:09;;;;;;;5.45;3.17;;;6.30;72.00;;;;;;5093274;28;20438;-86
2021/04/28 04:12:34;;;;;;;6.68;3.38;;;6.20;72.10;;;;;;5093503;28;20059;-86
2021/04/28 04:15:00;;;;;;;4.28;3.03;;;6.30;72.10;;;;;;5092190;28;20031;-86
2021/04/28 04:17:25;;;;;;;6.00;3.42;;;6.20;72.10;;;;;;5092671;28;20027;-85
2021/04/28 04:19:52;;;;;;;6.03;3.30;;;6.20;72.10;;;;;;5092111;28;20024;-84
2021/04/28 04:22:17;;;;;;;4.47;3.05;;;6.20;72.20;;;;;;5091901;28;20032;-86
2021/04/28 04:24:43;;;;;;;6.38;3.25;;;6.20;72.30;;;;;;5092050;28;20032;-86
2021/04/28 04:27:09;;;;;;;6.88;2.90;;;6.20;72.30;;;;;;5092032;28;20024;-85
2021/04/28 04:29:34;;;;;;;5.38;3.08;;;6.20;72.40;;;;;;5093535;28;20020;-84
2021/04/28 04:32:00;;;;;;;4.28;2.92;;;6.20;72.40;;;;;;5092316;28;20031;-85
2021/04/28 04:34:25;;;;;;;4.40;3.08;;;6.20;72.40;;;;;;5092008;28;20111;-86
2021/04/28 04:36:51;;;;;;;6.30;3.38;;;6.20;72.50;;;;;;5093535;28;20054;-86
2021/04/28 04:39:17;;;;;;;4.90;2.80;;;6.20;72.50;;;;;;5093291;28;20024;-87
2021/04/28 04:41:42;;;;;;;4.95;2.92;;;6.20;72.60;;;;;;5091522;28;20063;-85
2021/04/28 04:44:08;;;;;;;7.00;3.55;;;6.20;72.60;;;;;;5091352;28;20466;-86
2021/04/28 04:46:33;;;;;;;5.05;3.13;;;6.20;72.80;;;;;;5092437;28;20386;-86
2021/04/28 04:48:59;;;;;;;6.35;3.70;;;6.20;72.70;;;;;;5093622;28;20023;-86
2021/04/28 04:51:25;;;;;;;4.68;2.88;;;6.20;72.80;;;;;;5095977;28;20031;-86
2021/04/28 04:53:50;;;;;;;6.30;3.40;;;6.20;72.70;;;;;;5096207;28;20450;-85
2021/04/28 04:56:16;;;;;;;5.60;3.10;;;6.20;72.60;;;;;;5095874;28;20104;-86
2021/04/28 04:58:41;;;;;;;5.35;3.55;;;6.30;72.80;;;;;;5095905;28;20070;-86
2021/04/28 05:01:07;;;;;;;5.88;3.05;;;6.30;72.70;;;;;;5096104;28;20017;-86
2021/04/28 05:03:33;;;;;;;7.05;3.63;;;6.30;72.60;;;;;;5095590;28;20484;-86
2021/04/28 05:06:01;;;;;;;5.15;3.17;;;6.40;72.80;;;;;;5096791;28;20094;-85
2021/04/28 05:08:26;;;;;;;5.07;3.10;;;6.50;72.80;;;;;;5093481;28;20519;-84
2021/04/28 05:10:53;;;;;;;6.35;3.33;;;6.50;72.60;;;;;;5094404;28;20028;-87
2021/04/28 05:13:19;;;;;;;7.88;3.97;;;6.60;72.20;;;;;;5094833;28;20020;-87
2021/04/28 05:15:44;;;;;;;7.22;3.70;;;6.70;72.30;;;;;;5095387;28;20462;-86
2021/04/28 05:18:10;;;;;;;5.15;3.33;;;6.80;72.20;;;;;;5094742;28;20113;-86
2021/04/28 05:20:35;;;;;;;5.53;3.72;;;6.80;71.90;;;;;;5113173;28;20015;-86
2021/04/28 05:23:01;;;;;;;6.47;3.70;;;6.90;71.80;;;;;;5115231;28;20076;-86
2021/04/28 05:25:27;;;;;;;5.80;3.83;;;7.00;71.80;;;;;;5115010;28;20421;-87
2021/04/28 05:27:52;;;;;;;8.32;3.70;;;7.10;71.70;;;;;;5115103;28;20045;-89
2021/04/28 05:30:20;;;;;;;6.22;3.38;;;7.10;71.70;;;;;;5115053;28;20049;-87
2021/04/28 05:32:46;;;;;;;5.20;3.28;;;7.20;71.60;;;;;;5097895;28;20016;-85
2021/04/28 05:35:12;;;;;;;6.38;3.25;;;7.20;71.80;;;;;;5114130;28;20059;-87
2021/04/28 05:37:38;;;;;;;8.25;3.33;;;7.30;71.70;;;;;;5115769;28;20035;-84
2021/04/28 05:40:06;;;;;;;7.18;3.20;;;7.30;71.60;;;;;;5113616;28;20020;-83
2021/04/28 05:42:32;;;;;;;4.50;3.20;;;7.40;71.70;;;;;;5095860;28;20051;-85
2021/04/28 05:44:58;;;;;;;7.35;4.03;;;7.50;72.00;;;;;;5093613;28;20043;-84
2021/04/28 05:47:24;;;;;;;5.53;3.35;;;7.60;71.80;;;;;;5094084;28;20389;-88
2021/04/28 05:49:49;;;;;;;5.43;3.70;;;7.70;71.50;;;;;;5106007;28;20098;-86
2021/04/28 05:52:15;;;;;;;6.40;3.47;;;7.70;71.30;;;;;;5114921;28;20047;-86
2021/04/28 05:54:41;;;;;;;7.82;3.45;;;7.80;70.90;;;;;;5113438;28;20439;-86
2021/04/28 05:57:11;;;;;;;5.68;3.30;;;7.80;70.90;;;;;;5113696;28;20028;-86
2021/04/28 05:59:36;;;;;;;5.47;3.60;;;7.90;70.90;;;;;;5113391;28;20657;-86
2021/04/28 06:02:02;;;;;;;4.53;3.08;;;8.00;71.00;;;;;;5114675;28;20442;-86
2021/04/28 06:04:28;;;;;;;5.57;2.92;;;8.10;70.80;;;;;;5098459;28;20024;-88
2021/04/28 06:06:53;;;;;;;4.65;2.90;;;8.10;70.70;;;;;;5105888;28;20123;-88
2021/04/28 06:09:19;;;;;;;5.85;3.80;;;8.30;70.50;;;;;;5115041;28;20111;-88
2021/04/28 06:11:45;;;;;;;6.50;3.30;;;8.40;70.40;;;;;;5104739;28;20097;-85
2021/04/28 06:14:11;;;;;;;5.82;3.25;;;8.50;70.20;;;;;;5095891;28;20020;-86
2021/04/28 06:16:36;;;;;;;5.57;2.92;;;8.60;70.30;;;;;;5094680;28;20027;-86
2021/04/28 06:19:02;;;;;;;6.32;3.20;;;8.70;70.00;;;;;;5094492;28;20109;-86
2021/04/28 06:21:28;;;;;;;5.65;3.53;;;8.80;69.50;;;;;;5094615;28;20020;-87
2021/04/28 06:23:53;;;;;;;6.25;3.47;;;8.90;69.20;;;;;;5096392;28;20078;-88
2021/04/28 06:26:19;;;;;;;4.47;3.40;;;9.00;69.10;;;;;;5094130;28;20024;-88
2021/04/28 06:28:46;;;;;;;5.80;3.75;;;9.00;68.80;;;;;;5094536;28;20523;-87
2021/04/28 06:31:12;;;;;;;6.82;3.63;;;9.10;68.60;;;;;;5094926;28;20120;-86
2021/04/28 06:33:42;;;;;;;4.75;3.13;;;9.20;68.70;;;;;;5095512;28;20031;-85
2021/04/28 06:36:08;;;;;;;5.07;3.05;;;9.20;68.60;;;;;;5093979;28;20541;-86
2021/04/28 06:38:34;;;;;;;5.35;3.22;;;9.20;68.50;;;;;;5094396;28;20048;-86
2021/04/28 06:41:00;;;;;;;4.80;2.95;;;9.30;68.50;;;;;;5094873;28;20035;-87
2021/04/28 06:43:25;;;;;;;6.85;3.38;;;9.30;68.60;;;;;;5102189;28;20020;-85
2021/04/28 06:45:51;;;;;;;4.55;3.17;;;9.30;68.50;;;;;;5101860;28;20046;-86
2021/04/28 06:48:16;;;;;;;5.95;3.72;;;9.40;68.50;;;;;;5094867;28;20020;-86
2021/04/28 06:50:42;;;;;;;5.68;3.30;;;9.40;68.40;;;;;;5093833;28;20458;-86
2021/04/28 06:53:07;;;;;;;4.47;2.95;;;9.40;68.60;;;;;;5094036;28;20107;-86
2021/04/28 06:55:34;;;;;;;6.13;3.28;;;9.50;68.80;;;;;;5093463;28;20024;-86
2021/04/28 06:58:00;;;;;;;5.20;3.22;;;9.60;68.60;;;;;;5092843;28;20016;-85
2021/04/28 07:00:28;;;;;;;4.72;3.20;;;9.70;68.50;;;;;;5109929;28;20042;-85
2021/04/28 07:02:54;;;;;;;4.97;3.50;;;9.80;68.20;;;;;;5113850;28;20016;-84
2021/04/28 07:05:21;;;;;;;4.55;3.17;;;10.00;67.80;;;;;;5104643;28;20481;-85
2021/04/28 07:07:48;;;;;;;4.65;3.42;;;10.10;67.80;;;;;;5092208;28;20059;-86
2021/04/28 07:10:15;;;;;;;5.43;3.38;;;10.30;67.70;;;;;;5093344;28;20068;-86
2021/04/28 07:12:42;;;;;;;5.15;3.42;;;10.30;67.50;;;;;;5093723;28;20028;-85
2021/04/28 07:15:08;;;;;;;4.30;3.10;;;10.40;67.00;;;;;;5093221;28;20074;-86
2021/04/28 07:17:35;;;;;;;7.05;3.72;;;10.30;67.20;;;;;;5093295;28;20028;-85
2021/04/28 07:20:02;;;;;;;7.40;4.10;;;10.40;67.30;;;;;;5093032;28;20368;-86
2021/04/28 07:22:28;;;;;;;6.05;3.33;;;10.50;67.10;;;;;;5093112;28;20081;-85
2021/04/28 07:24:54;;;;;;;7.15;3.63;;;10.50;67.20;;;;;;5093070;28;20036;-86
2021/04/28 07:27:20;;;;;;;5.07;3.28;;;10.60;67.10;;;;;;5092635;28;20028;-86
2021/04/28 07:29:46;;;;;;;6.55;3.78;;;10.70;67.20;;;;;;5093556;28;20551;-87
2021/04/28 07:32:11;;;;;;;7.38;3.63;;;10.80;67.10;;;;;;5093245;28;20020;-86
2021/04/28 07:34:37;;;;;;;4.03;2.92;;;10.90;67.10;;;;;;5093287;28;20062;-88
2021/04/28 07:37:03;;;;;;;5.28;3.88;;;11.00;67.30;;;;;;5092472;28;20027;-85
2021/04/28 07:39:30;;;;;;;6.20;4.05;;;11.10;66.90;;;;;;5092680;28;20032;-84
2021/04/28 07:41:55;;;;;;;6.80;4.13;;;11.10;66.90;;;;;;5093110;28;20016;-87
2021/04/28 07:44:21;;;;;;;6.82;4.60;;;11.10;66.10;;;;;;5095356;28;20104;-87
2021/04/28 07:46:46;;;;;;;5.53;3.95;;;11.10;66.60;;;;;;5094115;28;20043;-87
2021/04/28 07:49:12;;;;;;;5.10;3.50;;;11.10;66.50;;;;;;5094941;28;20016;-87
2021/04/28 07:51:38;;;;;;;5.75;4.00;;;11.20;66.60;;;;;;5093737;28;20450;-85
2021/04/28 07:54:05;;;;;;;5.57;3.65;;;11.20;66.40;;;;;;5092437;28;20122;-85
2021/04/28 07:56:30;;;;;;;5.85;3.88;;;11.20;66.40;;;;;;5092460;28;20020;-86
2021/04/28 07:58:56;;;;;;;5.82;3.53;;;11.20;66.80;;;;;;5092339;28;20480;-86
2021/04/28 08:01:22;;;;;;;5.70;3.88;;;11.30;66.80;;;;;;5093615;28;20024;-86
2021/04/28 08:03:47;;;;;;;5.72;3.35;;;11.40;66.90;;;;;;5092009;28;20063;-86
2021/04/28 08:06:13;;;;;;;7.40;4.40;;;11.50;66.80;;;;;;5092392;28;20485;-87
2021/04/28 08:08:39;;;;;;;6.32;3.55;;;11.60;66.30;;;;;;5091117;28;20044;-88
2021/04/28 08:11:04;;;;;;;6.50;4.05;;;11.70;66.60;;;;;;5103390;28;20028;-86
2021/04/28 08:13:30;;;;;;;5.65;3.80;;;11.80;66.80;;;;;;5092143;28;20019;-85
2021/04/28 08:15:56;;;;;;;7.00;3.60;;;11.90;66.60;;;;;;5103473;28;20028;-86
2021/04/28 08:18:22;;;;;;;5.35;3.35;;;12.00;66.40;;;;;;5091489;28;20111;-86
2021/04/28 08:20:48;;;;;;;6.60;3.58;;;12.10;66.40;;;;;;5091620;28;20531;-86
2021/04/28 08:23:14;;;;;;;5.75;3.80;;;12.20;66.20;;;;;;5104116;28;20107;-88
2021/04/28 08:25:42;;;;;;;4.93;3.20;;;12.30;66.10;;;;;;5111514;28;20036;-89
2021/04/28 08:28:08;;;;;;;5.68;3.55;;;12.40;66.00;;;;;;5095259;28;20023;-84
2021/04/28 08:30:33;;;;;;;5.63;3.90;;;12.50;65.70;;;;;;5110020;28;20031;-87
2021/04/28 08:32:59;;;;;;;7.07;4.72;;;12.70;65.50;;;;;;5098843;28;20028;-86
2021/04/28 08:35:24;;;;;;;7.03;4.00;;;12.80;64.80;;;;;;5106272;28;20396;-87
2021/04/28 08:37:50;;;;;;;6.07;4.15;;;12.90;64.80;;;;;;5105911;28;20072;-86
2021/04/28 08:40:17;;;;;;;5.05;3.85;;;12.90;65.10;;;;;;5104124;28;20031;-86
2021/04/28 08:42:43;;;;;;;5.30;3.33;;;12.90;66.00;;;;;;5094904;28;20023;-85
2021/04/28 08:45:10;;;;;;;5.55;3.78;;;12.90;66.00;;;;;;5094883;28;20028;-85
2021/04/28 08:47:36;;;;;;;5.00;3.70;;;13.00;65.90;;;;;;5099658;28;20047;-84
2021/04/28 08:50:04;;;;;;;6.78;3.78;;;13.00;65.80;;;;;;5105981;28;20020;-85
2021/04/28 08:52:32;;;;;;;12.90;3.95;;;13.00;65.20;;;;;;5103570;28;20107;-86
2021/04/28 08:54:57;;;;;;;5.65;3.90;;;13.10;65.30;;;;;;5094519;28;20028;-85
2021/04/28 08:57:23;;;;;;;6.78;4.63;;;13.20;65.30;;;;;;5114937;28;20019;-87
2021/04/28 08:59:49;;;;;;;6.10;4.50;;;13.30;65.60;;;;;;5109247;28;20020;-86
2021/04/28 09:02:22;;;;;;;7.38;4.82;;;13.40;65.90;;;;;;5104428;28;20024;-85
2021/04/28 09:05:11;;;;;;;6.57;4.50;;;13.60;65.50;;;;;;5103357;28;20036;-86
2021/04/28 09:07:42;;;;;;;7.45;4.28;;;13.70;65.10;;;;;;5101182;28;20102;-86
2021/04/28 09:10:14;;;;;;;7.38;3.97;;;13.80;65.00;;;;;;5105077;28;20058;-86
2021/04/28 09:12:49;;;;;;;7.60;4.72;;;13.90;65.00;;;;;;5102108;28;20485;-86
2021/04/28 09:15:15;;;;;;;7.63;4.30;;;14.10;65.10;;;;;;5096590;28;20044;-84
2021/04/28 09:17:53;;;;;;;6.80;4.40;;;14.20;64.90;;;;;;5095603;28;20048;-84
2021/04/28 09:20:30;;;;;;;6.57;4.57;;;14.40;64.60;;;;;;5105781;28;20109;-83
2021/04/28 09:23:07;;;;;;;6.53;4.55;;;14.40;64.60;;;;;;5106973;28;20043;-84
2021/04/28 09:25:37;;;;;;;7.47;4.90;;;14.60;64.90;;;;;;5094089;28;20040;-84
2021/04/28 09:28:29;;;;;;;7.20;4.68;;;14.80;64.20;;;;;;5095007;28;20012;-83
2021/04/28 09:31:07;;;;;;;7.90;5.18;;;15.00;63.80;;;;;;5095094;28;20075;-86
2021/04/28 09:33:44;;;;;;;6.82;4.95;;;15.30;62.90;;;;;;5106803;28;20031;-85
2021/04/28 09:36:14;;;;;;;7.93;5.35;;;15.80;62.40;;;;;;5104998;28;20111;-86
2021/04/28 09:39:08;;;;;;;7.75;5.47;;;16.50;61.70;;;;;;5094971;28;20604;-85
2021/04/28 09:41:36;;;;;;;8.25;4.65;;;16.90;60.30;;;;;;5098774;28;20019;-85
2021/04/28 09:44:18;;;;;;;6.95;4.50;;;17.00;60.10;;;;;;5113485;28;20126;-85
2021/04/28 09:46:57;;;;;;;9.10;5.22;;;17.10;59.80;;;;;;5114496;28;20103;-84
2021/04/28 09:49:24;;;;;;;6.22;4.80;;;17.20;59.30;;;;;;5094256;28;20382;-86
2021/04/28 09:51:59;;;;;;;5.95;5.03;;;17.10;59.10;;;;;;5094053;28;20107;-85
2021/04/28 09:54:29;;;;;;;5.60;4.00;;;17.10;59.50;;;;;;5111993;28;20024;-85
2021/04/28 09:56:56;;;;;;;6.25;4.18;;;17.20;59.50;;;;;;5103247;28;20460;-85
2021/04/28 09:59:21;;;;;;;6.35;5.22;;;17.40;59.50;;;;;;5094035;28;20031;-88
2021/04/28 10:01:47;;;;;;;8.30;5.32;;;17.60;58.70;;;;;;5093969;28;20032;-86
2021/04/28 10:04:26;;;;;;;6.13;4.60;;;18.10;58.50;;;;;;5096475;28;20016;-86
2021/04/28 10:06:52;;;;;;;6.97;5.00;;;19.10;57.80;;;;;;5113572;28;20428;-86
2021/04/28 10:09:35;;;;;;;6.28;4.90;;;19.90;56.20;;;;;;5095106;28;20118;-85
2021/04/28 10:12:06;;;;;;;5.97;4.00;;;20.30;55.30;;;;;;5094583;28;20020;-87
2021/04/28 10:14:33;;;;;;;8.25;4.55;;;20.20;55.30;;;;;;5097760;28;20420;-85
2021/04/28 10:17:03;;;;;;;6.20;5.20;;;19.90;55.50;;;;;;5089716;28;20082;-85
2021/04/28 10:19:30;;;;;;;7.00;4.47;;;20.00;55.40;;;;;;5095077;28;20020;-85
2021/04/28 10:22:06;;;;;;;6.80;5.20;;;20.90;54.70;;;;;;5101058;28;20054;-84
2021/04/28 10:24:32;;;;;;;7.45;4.43;;;21.60;53.10;;;;;;5094150;28;20603;-84
2021/04/28 10:26:58;;;;;;;6.45;4.10;;;21.70;53.30;;;;;;5090665;28;20038;-84
2021/04/28 10:29:25;;;;;;;8.70;6.30;;;21.70;53.50;;;;;;5099539;28;20046;-85
2021/04/28 10:31:53;;;;;;;6.22;4.68;;;21.80;51.40;;;;;;5098650;28;20038;-85
2021/04/28 10:34:30;;;;;;;6.65;4.68;;;21.70;52.00;;;;;;5098020;28;20027;-84
2021/04/28 10:36:57;;;;;;;6.63;4.60;;;21.60;52.20;;;;;;5093566;28;20024;-85
2021/04/28 10:39:25;;;;;;;5.57;4.18;;;21.60;52.50;;;;;;5107442;28;20036;-86
2021/04/28 10:41:55;;;;;;;5.65;4.35;;;21.90;52.40;;;;;;5096549;28;20015;-85
2021/04/28 10:44:30;;;;;;;5.43;3.83;;;22.50;52.40;;;;;;5097828;28;20042;-86
2021/04/28 10:47:19;;;;;;;7.07;4.55;;;23.20;51.70;;;;;;5091786;28;20036;-85
2021/04/28 10:50:08;;;;;;;6.80;4.70;;;23.50;50.20;;;;;;5098836;28;20033;-85
2021/04/28 10:52:41;;;;;;;7.35;5.05;;;23.30;49.00;;;;;;5098589;28;20020;-83
2021/04/28 10:55:26;;;;;;;;;;;23.10;49.20;;;;;;5109405;28;20026;-83
2021/04/28 10:57:52;;;;;;;11.02;6.35;;;22.90;49.20;;;;;;5100258;28;19911;-83
2021/04/28 11:00:20;;;;;;;8.02;4.65;;;22.70;49.80;;;;;;5101033;28;20028;-86
2021/04/28 11:02:47;;;;;;;7.43;5.40;;;22.70;49.10;;;;;;5099405;28;20020;-87
2021/04/28 11:05:28;;;;;;;8.38;6.47;;;22.50;49.00;;;;;;5104947;28;20047;-87
2021/04/28 11:07:59;;;;;;;8.07;6.60;;;22.60;48.30;;;;;;5102127;28;20189;-88
2021/04/28 11:10:34;;;;;;;8.35;5.55;;;22.50;48.40;;;;;;5099251;28;20423;-86
2021/04/28 11:13:17;;;;;;;7.22;4.90;;;22.90;48.80;;;;;;5098986;28;20032;-85
2021/04/28 11:15:58;;;;;;;6.85;4.75;;;23.30;48.20;;;;;;5098700;28;20115;-88
2021/04/28 11:18:34;;;;;;;6.65;4.53;;;23.80;48.00;;;;;;5100966;28;20428;-84
2021/04/28 11:21:26;;;;;;;6.57;5.22;;;24.60;47.80;;;;;;5109311;28;20023;-86
2021/04/28 11:24:14;;;;;;;6.95;4.88;;;24.90;46.40;;;;;;5091948;28;20039;-84
2021/04/28 11:26:50;;;;;;;6.50;5.00;;;24.60;46.50;;;;;;5091628;28;20126;-84
2021/04/28 11:29:18;;;;;;;7.15;5.82;;;24.20;47.10;;;;;;5094149;28;20118;-85
2021/04/28 11:31:54;;;;;;;6.03;5.00;;;24.20;47.10;;;;;;5105181;28;20023;-84
2021/04/28 11:34:32;;;;;;;8.15;5.80;;;24.50;46.90;;;;;;5098704;28;20030;-85
2021/04/28 11:37:04;;;;;;;8.43;5.30;;;24.90;45.60;;;;;;5095322;28;20568;-86
2021/04/28 11:39:37;;;;;;;7.45;5.75;;;24.90;45.80;;;;;;5096652;28;20024;-86
2021/04/28 11:42:05;;;;;;;10.82;6.00;;;24.80;45.70;;;;;;5103807;28;20047;-85
2021/04/28 11:44:31;;;;;;;7.20;5.60;;;24.80;45.10;;;;;;5096261;28;20031;-86
2021/04/28 11:47:10;;;;;;;8.38;5.50;;;24.80;45.60;;;;;;5093134;28;20043;-85
2021/04/28 11:49:39;;;;;;;8.18;5.25;;;24.90;45.40;;;;;;5092228;28;20016;-86
2021/04/28 11:52:05;;;;;;;7.90;5.22;;;25.20;45.30;;;;;;5092886;28;20474;-87
2021/04/28 11:54:32;;;;;;;7.18;5.13;;;25.50;45.20;;;;;;5106899;28;20031;-86
2021/04/28 11:56:58;;;;;;;7.47;4.85;;;25.60;44.70;;;;;;5113014;28;20024;-86
2021/04/28 11:59:26;;;;;;;7.88;6.38;;;25.60;45.20;;;;;;5106850;27;20586;-87
2021/04/28 12:01:56;;;;;;;6.80;4.97;;;25.50;45.50;;;;;;5105376;28;20040;-86
2021/04/28 12:04:30;;;;;;;6.70;5.18;;;25.60;44.70;;;;;;5100520;28;20790;-86
2021/04/28 12:06:56;;;;;;;9.95;6.47;;;25.80;44.50;;;;;;5109403;28;20126;-87
2021/04/28 12:09:38;;;;;;;7.63;5.70;;;25.70;44.00;;;;;;5106658;28;20487;-87
2021/04/28 12:12:12;;;;;;;8.45;5.80;;;25.40;44.60;;;;;;5101665;28;20429;-86
2021/04/28 12:14:40;;;;;;;8.15;5.47;;;25.40;44.30;;;;;;5105576;28;20020;-87
2021/04/28 12:17:06;;;;;;;6.40;5.22;;;25.70;44.50;;;;;;5101250;28;20028;-87
2021/04/28 12:19:32;;;;;;;7.75;6.13;;;26.10;44.30;;;;;;5106817;28;20019;-87
2021/04/28 12:22:04;;;;;;;6.78;5.05;;;26.20;43.80;;;;;;5104369;28;20067;-87
2021/04/28 12:24:34;;;;;;;6.65;4.47;;;26.50;43.90;;;;;;5113490;28;20103;-86
2021/04/28 12:27:17;;;;;;;9.55;6.85;;;26.90;43.80;;;;;;5111469;27;20596;-86
2021/04/28 12:29:44;;;;;;;9.90;5.80;;;27.30;42.40;;;;;;5096458;28;20016;-86
2021/04/28 12:32:11;;;;;;;6.78;5.22;;;27.20;42.00;;;;;;5097075;28;20274;-86
2021/04/28 12:34:39;;;;;;;8.20;5.65;;;27.00;42.40;;;;;;5103785;28;20026;-85
2021/04/28 12:37:24;;;;;;;7.40;6.22;;;26.80;42.20;;;;;;5095685;28;20108;-86
2021/04/28 12:39:54;;;;;;;10.25;5.78;;;26.50;42.00;;;;;;5095066;28;20020;-86
2021/04/28 12:42:22;;;;;;;7.50;6.43;;;26.20;42.30;;;;;;5106776;28;20016;-85
2021/04/28 12:44:49;;;;;;;9.85;6.45;;;26.20;42.30;;;;;;5099232;27;20043;-86
2021/04/28 12:47:15;;;;;;;9.88;8.05;;;26.40;43.30;;;;;;5100321;28;20422;-84
2021/04/28 12:49:41;;;;;;;9.50;7.18;;;26.50;42.20;;;;;;5100267;28;20106;-84
2021/04/28 12:52:14;;;;;;;7.85;6.57;;;26.20;43.30;;;;;;5106072;28;20779;-87
2021/04/28 12:54:40;;;;;;;7.85;6.60;;;25.70;43.00;;;;;;5097298;28;20099;-84
2021/04/28 12:57:21;;;;;;;6.50;5.22;;;25.50;42.60;;;;;;5100970;28;20479;-85